Sumifukumaru No.5 — JD3058 — position and weather

sailwx.info

Track history (hours):
 
Tides and Currents Weather Stations Pressure Air Temp Water Temp Dewpoint Dewpoint Depression Visibility Wind Speed Wind Dir Waves Ship Positions

Sumifukumaru No.5

Last reported at 2016-Nov-30 10:17 UTC. Time now 2016-Dec-10 12:51 UTC.
Position N 34°04' E 135°02'.
Warning: this ship's position is 10 days out of date.

Length 75 m; draft 4.4 m.

Type: Cargo ship. MMSI: 431001371.

Date/timePositionNaut miles runAvg speedWind from/ knotsBaromVisibWave heightAir tempDewpointWater temp
2016-Nov-30 10:17N 34°04' E 135°02'911.9
2016-Nov-30 09:33N 34°12' E 135°02'1211.2
2016-Nov-30 08:30N 34°23' E 135°08'1212.2
2016-Nov-30 07:33N 34°32' E 135°17'8 0.5
2016-Nov-29 16:23N 34°34' E 135°27'0 0.0
2016-Nov-29 15:17N 34°34' E 135°27'0 0.0
2016-Nov-29 13:23N 34°34' E 135°27'0 0.0
2016-Nov-29 12:11N 34°34' E 135°27'0 0.0
2016-Nov-29 04:17N 34°34' E 135°27'1 0.2
2016-Nov-28 23:03N 34°35' E 135°26'1 0.7
2016-Nov-28 22:12N 34°35' E 135°27'0 0.0
2016-Nov-28 21:18N 34°35' E 135°27'0 0.0
2016-Nov-28 20:24N 34°35' E 135°27'0 0.0
2016-Nov-28 19:24N 34°35' E 135°27'0 0.0
2016-Nov-28 18:30N 34°35' E 135°27'0 0.0
2016-Nov-28 17:30N 34°35' E 135°27'0 0.0
2016-Nov-28 16:24N 34°35' E 135°27'0 0.0
2016-Nov-28 15:30N 34°35' E 135°27'0 0.0
2016-Nov-28 10:12N 34°35' E 135°27'0 0.0
2016-Nov-28 08:18N 34°35' E 135°27'5 6.1
2016-Nov-28 07:33N 34°38' E 135°23'3 0.6
2016-Nov-28 02:12N 34°39' E 135°27'1 1.4
2016-Nov-28 01:33N 34°39' E 135°26'4 2.9
2016-Nov-28 00:13N 34°35' E 135°26'0 0.0
2016-Nov-27 23:32N 34°35' E 135°26'0 0.0
2016-Nov-27 22:25N 34°35' E 135°26'0 0.0
2016-Nov-27 21:31N 34°35' E 135°26'0 0.0
2016-Nov-27 20:26N 34°35' E 135°26'0 0.0
2016-Nov-27 19:31N 34°35' E 135°26'0 0.0
2016-Nov-27 18:32N 34°35' E 135°26'0 0.0
2016-Nov-27 17:31N 34°35' E 135°26'0 0.0
2016-Nov-27 16:31N 34°35' E 135°26'0 0.0
2016-Nov-27 15:32N 34°35' E 135°26'0 0.0
2016-Nov-27 14:13N 34°35' E 135°26'0 0.0
2016-Nov-27 13:32N 34°35' E 135°26'0 0.0
2016-Nov-27 12:31N 34°35' E 135°26'0 0.0
2016-Nov-27 11:32N 34°35' E 135°26'0 0.0
2016-Nov-27 10:31N 34°35' E 135°26'0 0.0
2016-Nov-27 09:31N 34°35' E 135°26'0 0.0
2016-Nov-27 08:31N 34°35' E 135°26'0 0.0
2016-Nov-27 07:31N 34°35' E 135°26'0 0.0
2016-Nov-27 06:31N 34°35' E 135°26'0 0.0
2016-Nov-27 05:31N 34°35' E 135°26'0 0.0
2016-Nov-27 04:25N 34°35' E 135°26'0 0.0
2016-Nov-27 03:31N 34°35' E 135°26'0 0.0
2016-Nov-27 02:25N 34°35' E 135°26'0 0.0
2016-Nov-27 01:25N 34°35' E 135°26'0 0.0
2016-Nov-27 00:31N 34°35' E 135°26'0 0.0
2016-Nov-26 23:31N 34°35' E 135°26'0 0.4
2016-Nov-26 22:29N 34°35' E 135°25'0 0.0
2016-Nov-26 21:17N 34°35' E 135°25'0 0.0
2016-Nov-26 20:29N 34°35' E 135°25'0 0.0
2016-Nov-26 19:29N 34°35' E 135°25'0 0.0
2016-Nov-26 18:23N 34°35' E 135°25'0 0.0
2016-Nov-26 17:30N 34°35' E 135°25'0 0.3
2016-Nov-26 16:33N 34°35' E 135°25'1010.1
2016-Nov-26 15:32N 34°30' E 135°15'  
2016-Nov-20 17:33N 34°38' E 134°59'1313.3
2016-Nov-20 16:33N 34°36' E 135°15'10 4.6
2016-Nov-20 14:30N 34°34' E 135°27'0 0.0
2016-Nov-20 12:24N 34°34' E 135°27'  
Track history (hours):
 
Tides and Currents Weather Stations Pressure Air Temp Water Temp Dewpoint Dewpoint Depression Visibility Wind Speed Wind Dir Waves Ship Positions

Sumifukumaru No.5

Last reported at 2016-Nov-30 10:17 UTC. Time now 2016-Dec-10 12:51 UTC.
Position N 34°04' E 135°02'.
Warning: this ship's position is 10 days out of date.

Length 75 m; draft 4.4 m.

Type: Cargo ship. MMSI: 431001371.

Date/timePositionNaut miles runAvg speedWind from/ knotsBaromVisibWave heightAir tempDewpointWater temp
2016-Nov-30 10:17N 34°04' E 135°02'911.9
2016-Nov-30 09:33N 34°12' E 135°02'1211.2
2016-Nov-30 08:30N 34°23' E 135°08'1212.2
2016-Nov-30 07:33N 34°32' E 135°17'8 0.5
2016-Nov-29 16:23N 34°34' E 135°27'0 0.0
2016-Nov-29 15:17N 34°34' E 135°27'0 0.0
2016-Nov-29 13:23N 34°34' E 135°27'0 0.0
2016-Nov-29 12:11N 34°34' E 135°27'0 0.0
2016-Nov-29 04:17N 34°34' E 135°27'1 0.2
2016-Nov-28 23:03N 34°35' E 135°26'1 0.7
2016-Nov-28 22:12N 34°35' E 135°27'0 0.0
2016-Nov-28 21:18N 34°35' E 135°27'0 0.0
2016-Nov-28 20:24N 34°35' E 135°27'0 0.0
2016-Nov-28 19:24N 34°35' E 135°27'0 0.0
2016-Nov-28 18:30N 34°35' E 135°27'0 0.0
2016-Nov-28 17:30N 34°35' E 135°27'0 0.0
2016-Nov-28 16:24N 34°35' E 135°27'0 0.0
2016-Nov-28 15:30N 34°35' E 135°27'0 0.0
2016-Nov-28 10:12N 34°35' E 135°27'0 0.0
2016-Nov-28 08:18N 34°35' E 135°27'5 6.1
2016-Nov-28 07:33N 34°38' E 135°23'3 0.6
2016-Nov-28 02:12N 34°39' E 135°27'1 1.4
2016-Nov-28 01:33N 34°39' E 135°26'4 2.9
2016-Nov-28 00:13N 34°35' E 135°26'0 0.0
2016-Nov-27 23:32N 34°35' E 135°26'0 0.0
2016-Nov-27 22:25N 34°35' E 135°26'0 0.0
2016-Nov-27 21:31N 34°35' E 135°26'0 0.0
2016-Nov-27 20:26N 34°35' E 135°26'0 0.0
2016-Nov-27 19:31N 34°35' E 135°26'0 0.0
2016-Nov-27 18:32N 34°35' E 135°26'0 0.0
2016-Nov-27 17:31N 34°35' E 135°26'0 0.0
2016-Nov-27 16:31N 34°35' E 135°26'0 0.0
2016-Nov-27 15:32N 34°35' E 135°26'0 0.0
2016-Nov-27 14:13N 34°35' E 135°26'0 0.0
2016-Nov-27 13:32N 34°35' E 135°26'0 0.0
2016-Nov-27 12:31N 34°35' E 135°26'0 0.0
2016-Nov-27 11:32N 34°35' E 135°26'0 0.0
2016-Nov-27 10:31N 34°35' E 135°26'0 0.0
2016-Nov-27 09:31N 34°35' E 135°26'0 0.0
2016-Nov-27 08:31N 34°35' E 135°26'0 0.0
2016-Nov-27 07:31N 34°35' E 135°26'0 0.0
2016-Nov-27 06:31N 34°35' E 135°26'0 0.0
2016-Nov-27 05:31N 34°35' E 135°26'0 0.0
2016-Nov-27 04:25N 34°35' E 135°26'0 0.0
2016-Nov-27 03:31N 34°35' E 135°26'0 0.0
2016-Nov-27 02:25N 34°35' E 135°26'0 0.0
2016-Nov-27 01:25N 34°35' E 135°26'0 0.0
2016-Nov-27 00:31N 34°35' E 135°26'0 0.0
2016-Nov-26 23:31N 34°35' E 135°26'0 0.4
2016-Nov-26 22:29N 34°35' E 135°25'0 0.0
2016-Nov-26 21:17N 34°35' E 135°25'0 0.0
2016-Nov-26 20:29N 34°35' E 135°25'0 0.0
2016-Nov-26 19:29N 34°35' E 135°25'0 0.0
2016-Nov-26 18:23N 34°35' E 135°25'0 0.0
2016-Nov-26 17:30N 34°35' E 135°25'0 0.3
2016-Nov-26 16:33N 34°35' E 135°25'1010.1
2016-Nov-26 15:32N 34°30' E 135°15'  
2016-Nov-20 17:33N 34°38' E 134°59'1313.3
2016-Nov-20 16:33N 34°36' E 135°15'10 4.6
2016-Nov-20 14:30N 34°34' E 135°27'0 0.0
2016-Nov-20 12:24N 34°34' E 135°27'  

Dump ship's entire track history